Time;durP1;ratioP1;P1;durP2;ratioP2;P2;SDS_P1;SDS_P2;PMS_P1;PMS_P2;Temp;Humidity;BMP_temperature;BMP_pressure;BME280_temperature;BME280_humidity;BME280_pressure;Samples;Min_cycle;Max_cycle;Signal;HPM_P1;HPM_P2
2024/01/01 00:01:55;;;;;;;85.70;49.55;;;;;;;10.78;60.01;100238.75;5000807;28;20041;-43
2024/01/01 00:04:21;;;;;;;247.45;160.52;;;;;;;10.79;59.69;100231.72;5003119;28;20036;-41
2024/01/01 00:06:46;;;;;;;205.50;134.75;;;;;;;10.75;59.87;100233.69;5002622;28;20088;-42
2024/01/01 00:09:12;;;;;;;200.02;121.97;;;;;;;10.73;59.91;100216.34;5000470;28;20033;-41
2024/01/01 00:11:37;;;;;;;175.38;109.40;;;;;;;10.74;59.65;100210.94;5004864;28;20528;-41
2024/01/01 00:14:03;;;;;;;177.02;98.07;;;;;;;10.72;59.69;100219.91;5000988;28;20081;-42
2024/01/01 00:16:28;;;;;;;173.65;88.40;;;;;;;10.68;59.70;100233.25;5002662;28;20030;-42
2024/01/01 00:18:54;;;;;;;126.35;66.03;;;;;;;10.64;59.86;100241.47;4997351;28;20046;-41
2024/01/01 00:21:19;;;;;;;70.25;36.55;;;;;;;10.56;60.13;100234.06;5004207;28;20041;-40
2024/01/01 00:23:44;;;;;;;32.35;17.27;;;;;;;10.50;60.19;100234.50;5003984;28;20041;-41
2024/01/01 00:26:10;;;;;;;22.45;12.35;;;;;;;10.42;60.33;100231.50;5000538;28;20037;-42
2024/01/01 00:28:35;;;;;;;22.55;10.18;;;;;;;10.26;60.40;100221.94;5001205;28;20030;-42
2024/01/01 00:31:01;;;;;;;29.00;11.30;;;;;;;10.31;60.54;100222.50;5003949;28;20802;-41
2024/01/01 00:33:26;;;;;;;27.65;11.23;;;;;;;10.18;60.60;100221.63;4997008;28;20033;-41
2024/01/01 00:35:51;;;;;;;42.60;19.60;;;;;;;10.09;61.03;100230.06;5003905;28;20069;-40
2024/01/01 00:38:17;;;;;;;15.30;8.52;;;;;;;10.01;61.03;100228.78;4988721;28;20033;-42
2024/01/01 00:40:42;;;;;;;28.05;12.75;;;;;;;9.99;61.02;100228.03;5007735;28;20553;-41
2024/01/01 00:43:09;;;;;;;26.67;12.77;;;;;;;10.00;60.99;100226.25;5007941;28;20034;-44
2024/01/01 00:45:34;;;;;;;48.15;23.98;;;;;;;9.98;61.33;100223.72;5004956;28;20022;-42
2024/01/01 00:48:00;;;;;;;30.83;16.55;;;;;;;9.99;61.38;100229.81;5000072;28;20389;-42
2024/01/01 00:50:25;;;;;;;33.70;17.00;;;;;;;10.05;61.43;100232.94;5002292;28;20575;-41
2024/01/01 00:52:50;;;;;;;27.02;12.27;;;;;;;9.95;61.26;100229.19;5003103;28;20083;-42
2024/01/01 00:55:16;;;;;;;24.08;11.40;;;;;;;10.10;61.49;100231.78;4985015;28;20034;-42
2024/01/01 00:57:41;;;;;;;24.50;11.40;;;;;;;10.01;61.35;100234.06;5000480;28;20038;-42
2024/01/01 01:00:07;;;;;;;25.88;12.23;;;;;;;10.03;61.26;100234.81;4982433;28;20129;-42
2024/01/01 01:02:32;;;;;;;21.88;13.35;;;;;;;9.96;61.09;100243.19;5002426;28;20087;-43
2024/01/01 01:04:58;;;;;;;24.65;11.27;;;;;;;9.95;61.33;100236.22;4997676;28;20044;-42
2024/01/01 01:07:23;;;;;;;23.63;10.02;;;;;;;9.73;61.33;100227.91;5002074;28;20025;-43
2024/01/01 01:09:49;;;;;;;23.33;10.60;;;;;;;9.74;61.82;100224.34;5004239;28;20033;-44
2024/01/01 01:12:16;;;;;;;17.95;10.13;;;;;;;9.70;61.61;100235.97;4990805;28;20164;-43
2024/01/01 01:14:42;;;;;;;22.38;9.82;;;;;;;9.82;61.54;100236.16;5002639;28;20062;-42
2024/01/01 01:17:08;;;;;;;20.33;10.68;;;;;;;9.77;61.19;100221.50;5003773;28;20033;-43
2024/01/01 01:19:33;;;;;;;26.40;11.90;;;;;;;9.78;61.39;100227.63;5003608;28;20021;-44
2024/01/01 01:21:59;;;;;;;24.88;10.80;;;;;;;9.82;61.62;100229.13;5008286;28;20152;-43
2024/01/01 01:24:24;;;;;;;26.88;12.10;;;;;;;9.71;61.41;100216.66;5004479;28;20042;-43
2024/01/01 01:26:49;;;;;;;22.50;12.13;;;;;;;9.81;61.30;100221.31;5000799;28;20579;-44
2024/01/01 01:29:17;;;;;;;23.92;11.63;;;;;;;9.87;61.13;100220.94;5000527;28;20176;-42
2024/01/01 01:31:43;;;;;;;25.02;13.40;;;;;;;9.87;61.51;100220.94;5001070;28;20104;-44
2024/01/01 01:34:08;;;;;;;23.05;12.38;;;;;;;9.86;61.40;100224.50;4989988;28;20120;-42
2024/01/01 01:36:34;;;;;;;31.52;13.63;;;;;;;9.87;61.31;100234.09;5004644;28;20030;-42
2024/01/01 01:38:59;;;;;;;24.45;11.80;;;;;;;9.85;61.55;100231.53;5002106;28;20065;-41
2024/01/01 01:41:24;;;;;;;18.83;9.95;;;;;;;9.90;61.48;100237.34;5002362;28;20100;-42
2024/01/01 01:43:50;;;;;;;23.90;11.00;;;;;;;10.00;61.34;100237.63;5002310;28;20124;-41
2024/01/01 01:46:16;;;;;;;22.20;9.77;;;;;;;9.99;61.20;100232.44;5000940;28;20100;-42
2024/01/01 01:48:42;;;;;;;21.52;11.18;;;;;;;10.02;61.10;100235.75;5005115;28;20033;-42
2024/01/01 01:51:08;;;;;;;22.08;9.98;;;;;;;9.97;61.21;100243.06;5004033;28;20029;-42
2024/01/01 01:53:34;;;;;;;25.40;13.27;;;;;;;9.89;60.98;100240.09;5001102;28;20030;-41
2024/01/01 01:56:03;;;;;;;27.95;12.18;;;;;;;9.98;61.20;100241.31;5001759;28;20038;-41
2024/01/01 01:58:30;;;;;;;31.00;14.55;;;;;;;9.84;61.12;100239.53;5001608;28;20034;-42
2024/01/01 02:00:56;;;;;;;32.35;14.85;;;;;;;9.78;61.25;100230.25;5001148;28;20111;-41
2024/01/01 02:03:22;;;;;;;27.98;14.23;;;;;;;9.84;61.41;100227.22;5003674;28;20041;-43
2024/01/01 02:05:47;;;;;;;27.40;14.27;;;;;;;9.84;61.62;100223.75;4987837;28;20046;-41
2024/01/01 02:08:14;;;;;;;32.08;13.93;;;;;;;9.89;61.29;100224.31;5003748;28;20033;-41
2024/01/01 02:10:39;;;;;;;26.98;12.38;;;;;;;9.90;61.31;100215.50;5003428;28;20695;-41
2024/01/01 02:13:05;;;;;;;28.63;13.48;;;;;;;9.91;61.04;100217.16;5000767;28;20828;-41
2024/01/01 02:15:30;;;;;;;30.08;13.88;;;;;;;10.01;61.17;100220.06;4979078;28;20096;-41
2024/01/01 02:17:57;;;;;;;29.90;13.57;;;;;;;10.05;60.99;100222.41;5001117;28;20037;-41
2024/01/01 02:20:22;;;;;;;33.40;15.50;;;;;;;10.13;60.83;100213.19;5005801;28;20036;-42
2024/01/01 02:22:48;;;;;;;28.15;15.70;;;;;;;10.17;60.65;100201.53;5002070;28;20492;-42
2024/01/01 02:25:16;;;;;;;29.38;14.80;;;;;;;10.21;60.33;100213.50;5000349;28;20396;-43
2024/01/01 02:27:41;;;;;;;23.85;11.05;;;;;;;10.25;60.42;100215.00;5006341;28;20112;-41
2024/01/01 02:30:13;;;;;;;29.15;15.05;;;;;;;10.28;60.20;100209.56;5005856;28;20502;-42
2024/01/01 02:32:39;;;;;;;30.27;14.80;;;;;;;10.29;60.19;100211.25;4999509;28;20034;-42
2024/01/01 02:35:07;;;;;;;26.20;14.27;;;;;;;10.31;60.32;100208.50;5002124;28;20029;-41
2024/01/01 02:37:33;;;;;;;32.03;16.20;;;;;;;10.30;60.13;100212.94;4985052;28;20071;-41
2024/01/01 02:39:59;;;;;;;26.30;13.88;;;;;;;10.30;60.19;100201.56;5002224;28;20526;-42
2024/01/01 02:42:25;;;;;;;32.42;16.02;;;;;;;10.29;59.89;100202.50;5006185;28;20034;-43
2024/01/01 02:44:50;;;;;;;32.05;16.10;;;;;;;10.31;59.99;100203.25;4982647;28;20092;-42
2024/01/01 02:47:16;;;;;;;31.13;16.00;;;;;;;10.30;59.85;100202.41;5004360;28;20427;-42
2024/01/01 02:49:41;;;;;;;411.10;123.40;;;;;;;10.31;59.93;100208.50;5005920;28;20153;-44
2024/01/01 02:52:06;;;;;;;89.85;49.72;;;;;;;10.29;59.72;100211.25;4999797;28;20030;-43
2024/01/01 02:54:32;;;;;;;102.53;57.45;;;;;;;10.28;59.99;100208.72;4981214;28;21119;-42
2024/01/01 02:56:57;;;;;;;100.30;58.22;;;;;;;10.29;59.75;100205.13;4980468;28;20160;-41
2024/01/01 02:59:22;;;;;;;74.65;41.20;;;;;;;10.29;59.67;100202.50;4996684;28;20381;-43
2024/01/01 03:01:48;;;;;;;68.75;35.95;;;;;;;10.31;59.75;100205.88;4978649;28;20112;-42
2024/01/01 03:04:17;;;;;;;63.72;32.35;;;;;;;10.36;59.67;100202.00;4980483;28;20161;-42
2024/01/01 03:06:42;;;;;;;39.95;22.33;;;;;;;10.31;59.56;100204.09;5001227;28;20484;-42
2024/01/01 03:09:08;;;;;;;46.92;23.50;;;;;;;10.29;59.69;100200.72;4984623;28;20137;-44
2024/01/01 03:11:33;;;;;;;59.20;25.40;;;;;;;10.30;59.51;100202.41;4998146;28;20037;-41
2024/01/01 03:13:59;;;;;;;57.28;21.50;;;;;;;10.24;59.38;100208.06;4998711;28;20049;-42
2024/01/01 03:16:24;;;;;;;45.03;21.90;;;;;;;10.21;59.59;100209.13;4979902;28;20137;-44
2024/01/01 03:18:49;;;;;;;36.58;19.35;;;;;;;10.24;59.61;100213.31;5002097;28;20496;-47
2024/01/01 03:21:15;;;;;;;45.22;20.25;;;;;;;10.23;59.73;100211.63;4999020;28;20037;-44
2024/01/01 03:23:42;;;;;;;38.28;16.80;;;;;;;10.26;59.57;100211.44;4998592;28;20036;-42
2024/01/01 03:26:08;;;;;;;39.67;19.48;;;;;;;10.27;59.28;100207.03;5001300;28;20034;-41
2024/01/01 03:28:33;;;;;;;51.08;21.05;;;;;;;10.25;59.48;100209.75;5000882;28;20065;-44
2024/01/01 03:31:00;;;;;;;34.40;16.55;;;;;;;10.25;59.41;100215.00;5000249;28;20092;-41
2024/01/01 03:33:26;;;;;;;39.22;17.63;;;;;;;10.23;59.47;100214.25;4988721;28;20129;-45
2024/01/01 03:35:51;;;;;;;41.05;19.48;;;;;;;10.20;59.77;100217.09;5001189;28;20026;-42
2024/01/01 03:38:17;;;;;;;43.50;20.00;;;;;;;10.19;59.48;100210.16;4987028;28;20034;-41
2024/01/01 03:40:42;;;;;;;42.28;16.67;;;;;;;10.17;59.58;100206.78;4998599;28;20499;-42
2024/01/01 03:43:07;;;;;;;28.95;14.88;;;;;;;10.18;59.50;100197.97;4999537;28;20081;-42
2024/01/01 03:45:33;;;;;;;31.80;14.68;;;;;;;10.16;59.57;100207.72;5002794;28;20119;-41
2024/01/01 03:47:58;;;;;;;32.80;14.88;;;;;;;10.14;59.39;100207.81;5002581;28;20172;-41
2024/01/01 03:50:24;;;;;;;26.65;13.35;;;;;;;10.14;59.59;100206.97;5002599;28;20030;-42
2024/01/01 03:52:49;;;;;;;24.20;14.23;;;;;;;10.11;59.56;100215.91;5002677;28;20036;-42
2024/01/01 03:55:18;;;;;;;27.55;14.23;;;;;;;10.08;59.71;100208.22;5002018;28;20549;-42
2024/01/01 03:57:44;;;;;;;22.30;12.25;;;;;;;10.10;59.70;100205.47;4999629;28;20029;-41
2024/01/01 04:00:11;;;;;;;30.77;12.70;;;;;;;10.07;59.73;100207.34;5001186;28;20069;-40
2024/01/01 04:02:38;;;;;;;23.08;12.88;;;;;;;10.07;59.60;100204.72;5004084;28;20180;-42
2024/01/01 04:05:04;;;;;;;31.15;13.90;;;;;;;10.05;59.54;100214.53;5003067;28;20037;-45
2024/01/01 04:07:30;;;;;;;28.23;14.27;;;;;;;10.02;59.63;100208.59;5001291;28;20034;-43
2024/01/01 04:09:55;;;;;;;25.60;13.85;;;;;;;10.01;59.59;100209.53;5000102;28;20042;-43
2024/01/01 04:12:20;;;;;;;24.25;14.57;;;;;;;9.98;59.59;100207.97;4999338;28;20144;-42
2024/01/01 04:14:46;;;;;;;34.08;16.77;;;;;;;9.97;59.59;100214.16;4997750;28;20497;-42
2024/01/01 04:17:12;;;;;;;35.35;17.77;;;;;;;9.95;59.50;100208.16;4984285;28;20037;-42
2024/01/01 04:19:37;;;;;;;25.75;14.00;;;;;;;9.93;59.58;100212.66;5000721;28;20041;-42
2024/01/01 04:22:03;;;;;;;25.67;12.82;;;;;;;9.92;59.57;100213.59;5001800;28;20037;-44
2024/01/01 04:24:29;;;;;;;24.33;12.15;;;;;;;9.90;59.57;100210.25;4966930;28;20065;-42
2024/01/01 04:26:54;;;;;;;24.45;12.07;;;;;;;9.89;59.39;100212.00;5002103;28;20392;-42
2024/01/01 04:29:20;;;;;;;22.10;11.57;;;;;;;9.89;59.51;100204.13;5000884;28;20026;-41
2024/01/01 04:31:46;;;;;;;22.40;11.43;;;;;;;9.89;59.78;100201.50;4998194;28;20037;-43
2024/01/01 04:34:11;;;;;;;20.20;11.05;;;;;;;9.88;59.59;100209.50;4982137;28;20026;-43
2024/01/01 04:36:39;;;;;;;29.73;14.60;;;;;;;9.89;59.57;100208.56;5001541;28;20137;-43
2024/01/01 04:39:04;;;;;;;26.13;13.70;;;;;;;9.82;59.81;100202.84;4999436;28;20033;-42
2024/01/01 04:41:30;;;;;;;25.90;12.05;;;;;;;9.85;59.54;100196.53;5003641;28;20032;-43
2024/01/01 04:43:56;;;;;;;27.10;12.10;;;;;;;9.84;59.65;100198.31;5000187;28;20069;-42
2024/01/01 04:46:21;;;;;;;30.77;13.85;;;;;;;9.84;59.74;100194.84;4999515;28;20049;-41
2024/01/01 04:48:47;;;;;;;35.92;17.85;;;;;;;9.83;59.86;100195.78;5005216;28;20058;-40
2024/01/01 04:51:12;;;;;;;34.25;14.85;;;;;;;9.83;59.84;100198.44;5003401;28;20080;-40
2024/01/01 04:53:37;;;;;;;40.55;16.98;;;;;;;9.83;59.73;100201.06;5003054;28;20117;-40
2024/01/01 04:56:04;;;;;;;39.03;15.63;;;;;;;9.83;59.91;100185.28;4995584;28;20026;-41
2024/01/01 04:58:31;;;;;;;30.73;14.27;;;;;;;9.79;59.85;100183.78;5002582;28;20025;-41
2024/01/01 05:00:57;;;;;;;27.40;13.35;;;;;;;9.79;59.78;100181.16;4998747;28;20057;-40
2024/01/01 05:03:22;;;;;;;34.53;15.95;;;;;;;9.77;59.81;100182.09;4997622;28;20173;-41
2024/01/01 05:05:48;;;;;;;15.82;9.55;;;;;;;9.79;59.77;100181.16;5000254;28;20049;-41
2024/01/01 05:08:13;;;;;;;24.50;11.85;;;;;;;9.75;59.83;100181.38;4996898;28;20065;-41
2024/01/01 05:10:40;;;;;;;34.90;14.90;;;;;;;9.75;59.83;100180.50;5002348;28;20079;-42
2024/01/01 05:13:07;;;;;;;22.98;11.63;;;;;;;9.72;59.71;100184.19;4998578;28;20845;-40
2024/01/01 05:15:33;;;;;;;29.95;13.13;;;;;;;9.72;60.02;100180.69;4997535;28;20088;-40
2024/01/01 05:17:58;;;;;;;24.90;12.00;;;;;;;9.72;59.92;100180.69;4999468;28;20038;-40
2024/01/01 05:20:24;;;;;;;17.88;9.85;;;;;;;9.72;59.85;100178.06;5000281;28;20117;-40
2024/01/01 05:22:49;;;;;;;24.55;12.63;;;;;;;9.68;60.19;100168.72;4997773;28;20026;-40
2024/01/01 05:25:15;;;;;;;24.98;11.20;;;;;;;9.69;59.88;100171.25;5000589;28;20030;-40
2024/01/01 05:27:40;;;;;;;25.90;12.32;;;;;;;9.66;59.85;100166.19;5002380;28;20120;-40
2024/01/01 05:30:06;;;;;;;23.15;11.15;;;;;;;9.66;59.83;100168.81;5002474;28;20762;-40
2024/01/01 05:32:33;;;;;;;27.27;13.80;;;;;;;9.64;59.91;100160.16;5005624;28;20057;-40
2024/01/01 05:34:58;;;;;;;28.73;12.45;;;;;;;9.62;59.90;100164.66;4985728;28;20132;-40
2024/01/01 05:37:24;;;;;;;24.75;13.20;;;;;;;9.61;60.00;100157.72;5005654;28;20476;-40
2024/01/01 05:39:49;;;;;;;26.35;12.40;;;;;;;9.59;60.07;100163.09;5005756;28;20551;-40
2024/01/01 05:42:14;;;;;;;24.77;12.73;;;;;;;9.58;60.10;100163.19;5002987;28;20092;-40
2024/01/01 05:44:40;;;;;;;23.60;10.68;;;;;;;9.58;60.07;100168.47;5001466;28;20042;-40
2024/01/01 05:47:06;;;;;;;25.80;13.82;;;;;;;9.56;60.11;100163.28;5000786;28;20037;-42
2024/01/01 05:49:32;;;;;;;26.77;12.50;;;;;;;9.58;59.99;100168.47;5001798;28;20022;-41
2024/01/01 05:51:57;;;;;;;26.15;12.35;;;;;;;9.59;59.90;100168.34;5004843;28;20046;-41
2024/01/01 05:54:22;;;;;;;23.95;10.45;;;;;;;9.60;60.00;100166.56;5004411;28;20404;-41
2024/01/01 05:56:48;;;;;;;25.80;12.00;;;;;;;9.63;59.96;100170.78;5006915;28;20030;-41
2024/01/01 05:59:13;;;;;;;25.75;13.23;;;;;;;9.65;59.99;100169.75;5005223;28;20121;-41
2024/01/01 06:01:40;;;;;;;22.08;10.40;;;;;;;9.70;60.00;100170.31;5005631;28;20081;-41
2024/01/01 06:04:05;;;;;;;23.65;12.13;;;;;;;9.68;60.08;100164.28;5002958;28;20062;-41
2024/01/01 06:06:30;;;;;;;20.90;9.98;;;;;;;9.71;60.07;100172.00;5004795;28;20030;-41
2024/01/01 06:08:56;;;;;;;24.33;11.77;;;;;;;9.72;60.16;100171.06;5003111;28;20026;-41
2024/01/01 06:11:21;;;;;;;21.65;11.52;;;;;;;9.74;60.17;100169.19;5000400;28;20117;-41
2024/01/01 06:13:47;;;;;;;26.90;11.15;;;;;;;9.76;60.14;100171.69;5004987;28;20033;-40
2024/01/01 06:16:15;;;;;;;22.10;11.00;;;;;;;9.78;60.19;100175.06;4999981;28;20505;-41
2024/01/01 06:18:41;;;;;;;26.50;10.95;;;;;;;9.81;60.09;100164.38;5002183;28;20034;-41
2024/01/01 06:21:06;;;;;;;21.35;10.50;;;;;;;9.81;60.11;100172.25;5002195;28;20036;-41
2024/01/01 06:23:32;;;;;;;25.80;12.15;;;;;;;9.79;60.33;100168.03;5001549;28;20045;-41
2024/01/01 06:25:57;;;;;;;24.02;11.23;;;;;;;9.76;60.31;100167.28;5001206;28;20037;-41
2024/01/01 06:28:23;;;;;;;28.70;11.18;;;;;;;9.75;60.45;100168.25;5004004;28;20489;-41
2024/01/01 06:30:48;;;;;;;24.90;10.48;;;;;;;9.74;60.43;100170.94;5005263;28;20049;-41
2024/01/01 06:33:14;;;;;;;20.15;11.07;;;;;;;9.74;60.42;100166.56;5002942;28;20116;-41
2024/01/01 06:35:39;;;;;;;22.30;10.63;;;;;;;9.74;60.44;100169.19;5004244;28;20038;-42
2024/01/01 06:38:05;;;;;;;25.55;10.55;;;;;;;9.74;60.49;100174.44;5004157;28;20088;-43
2024/01/01 06:40:30;;;;;;;19.58;10.65;;;;;;;9.74;60.52;100174.44;5001860;28;20092;-41
2024/01/01 06:42:56;;;;;;;21.70;10.00;;;;;;;9.74;60.25;100176.19;5001741;28;20066;-42
2024/01/01 06:45:22;;;;;;;19.73;9.93;;;;;;;9.73;60.48;100174.50;4983117;28;20034;-43
2024/01/01 06:47:48;;;;;;;20.42;9.38;;;;;;;9.73;60.32;100183.25;5001912;28;20112;-43
2024/01/01 06:50:13;;;;;;;18.45;9.30;;;;;;;9.71;60.42;100185.13;5003303;28;20029;-41
2024/01/01 06:52:39;;;;;;;22.00;9.25;;;;;;;9.69;60.14;100189.63;5003058;28;20449;-41
2024/01/01 06:55:04;;;;;;;18.45;9.75;;;;;;;9.64;60.34;100189.06;4999931;28;20039;-42
2024/01/01 06:57:30;;;;;;;20.52;10.00;;;;;;;9.68;60.26;100193.19;5001455;28;20115;-42
2024/01/01 06:59:55;;;;;;;17.95;9.45;;;;;;;9.72;60.39;100197.31;5000934;28;20049;-42
2024/01/01 07:02:20;;;;;;;24.45;11.07;;;;;;;9.74;60.37;100203.34;5002368;28;20080;-41
2024/01/01 07:04:46;;;;;;;18.02;9.82;;;;;;;9.76;60.46;100201.44;5002202;28;20050;-41
2024/01/01 07:07:11;;;;;;;20.52;9.40;;;;;;;9.79;60.37;100202.19;5004052;28;20427;-42
2024/01/01 07:09:36;;;;;;;14.55;6.15;;;;;;;9.81;60.42;100213.44;4999769;28;20040;-42
2024/01/01 07:12:23;;;;;;;26.40;10.52;;;;;;;9.89;60.31;100204.13;5000337;28;20041;-42
2024/01/01 07:14:49;;;;;;;20.42;9.38;;;;;;;9.86;60.24;100206.13;4999002;28;20623;-42
2024/01/01 07:17:15;;;;;;;17.67;8.60;;;;;;;9.87;60.21;100202.56;5003224;28;20492;-42
2024/01/01 07:19:41;;;;;;;17.08;9.20;;;;;;;9.84;60.42;100200.13;5002926;28;20037;-44
2024/01/01 07:22:06;;;;;;;17.92;8.52;;;;;;;9.79;60.28;100204.81;4996339;28;20564;-43
2024/01/01 07:24:31;;;;;;;17.83;9.05;;;;;;;9.81;60.38;100210.81;5003156;28;20088;-43
2024/01/01 07:26:57;;;;;;;19.35;8.15;;;;;;;9.80;60.54;100211.75;5001188;28;20460;-41
2024/01/01 07:29:26;;;;;;;24.65;9.15;;;;;;;9.74;60.38;100213.84;5003834;28;20042;-42
2024/01/01 07:31:51;;;;;;;23.58;10.95;;;;;;;9.75;60.68;100228.66;4998636;28;20180;-43
2024/01/01 07:34:19;;;;;;;26.30;10.65;;;;;;;9.71;60.50;100214.03;5001522;28;20026;-44
2024/01/01 07:36:45;;;;;;;23.98;10.75;;;;;;;9.70;60.56;100214.97;5000962;28;20041;-41
2024/01/01 07:39:10;;;;;;;16.15;6.25;;;;;;;9.60;60.35;100208.59;4995901;28;20046;-45
2024/01/01 07:41:36;;;;;;;24.63;9.35;;;;;;;9.41;60.64;100215.00;4998274;28;20079;-43
2024/01/01 07:44:01;;;;;;;26.23;11.60;;;;;;;9.54;61.01;100217.69;5001400;28;20080;-45
2024/01/01 07:46:27;;;;;;;18.95;8.13;;;;;;;9.60;61.23;100216.50;5001519;28;20877;-45
2024/01/01 07:48:52;;;;;;;24.85;10.10;;;;;;;9.59;60.92;100217.44;5000050;28;20077;-43
2024/01/01 07:51:18;;;;;;;18.20;10.15;;;;;;;9.67;61.11;100223.03;4982795;28;20113;-44
2024/01/01 07:53:44;;;;;;;23.88;9.65;;;;;;;9.71;60.91;100216.66;4987372;28;20092;-41
2024/01/01 07:56:09;;;;;;;21.17;10.27;;;;;;;9.71;61.12;100215.78;4999935;28;20072;-43
2024/01/01 07:58:35;;;;;;;20.48;9.90;;;;;;;9.78;61.05;100219.75;5002337;28;20468;-45
2024/01/01 08:01:00;;;;;;;17.20;8.45;;;;;;;9.83;60.84;100219.44;5003747;28;20022;-44
2024/01/01 08:03:26;;;;;;;22.48;8.88;;;;;;;9.78;60.65;100217.13;4981986;28;20471;-42
2024/01/01 08:05:51;;;;;;;20.77;8.20;;;;;;;9.67;60.42;100216.94;5003778;28;20025;-44
2024/01/01 08:08:17;;;;;;;21.50;8.60;;;;;;;9.73;60.83;100220.03;5002982;28;20058;-45
2024/01/01 08:10:45;;;;;;;18.65;7.90;;;;;;;9.64;60.76;100225.00;4998493;28;20044;-43
2024/01/01 08:13:11;;;;;;;22.83;8.93;;;;;;;9.65;60.72;100222.28;5001984;28;20076;-42
2024/01/01 08:15:36;;;;;;;24.83;9.48;;;;;;;9.52;61.01;100219.59;5001197;28;20045;-42
2024/01/01 08:18:02;;;;;;;23.50;10.00;;;;;;;9.71;61.06;100219.28;5002761;28;20089;-43
2024/01/01 08:20:29;;;;;;;23.70;9.35;;;;;;;9.72;60.70;100215.72;4984704;28;20038;-42
2024/01/01 08:22:54;;;;;;;15.82;8.57;;;;;;;9.70;60.89;100220.22;4999795;28;20022;-42
2024/01/01 08:25:20;;;;;;;18.65;8.25;;;;;;;9.79;61.26;100215.31;4996208;28;20058;-42
2024/01/01 08:27:45;;;;;;;21.20;8.85;;;;;;;9.70;61.17;100225.47;5002960;28;20033;-41
2024/01/01 08:30:11;;;;;;;19.10;9.52;;;;;;;9.67;61.10;100214.31;5000764;28;20044;-41
2024/01/01 08:32:37;;;;;;;19.73;8.43;;;;;;;9.61;61.42;100210.25;5002256;28;20069;-43
2024/01/01 08:35:03;;;;;;;24.70;9.48;;;;;;;9.75;61.44;100219.94;4999234;28;20161;-43
2024/01/01 08:37:28;;;;;;;20.90;8.82;;;;;;;9.69;61.42;100218.53;4998633;28;20025;-43
2024/01/01 08:39:53;;;;;;;18.38;8.95;;;;;;;9.76;61.58;100206.69;5003871;28;20042;-42
2024/01/01 08:42:19;;;;;;;20.65;8.15;;;;;;;9.90;61.41;100218.13;5002205;28;20036;-43
2024/01/01 08:44:44;;;;;;;20.45;9.35;;;;;;;9.92;61.29;100218.84;5001536;28;20069;-45
2024/01/01 08:47:09;;;;;;;20.70;8.98;;;;;;;10.00;61.25;100216.59;4997999;28;20501;-43
2024/01/01 08:49:35;;;;;;;21.42;8.88;;;;;;;10.03;61.15;100226.06;4981112;28;20355;-42
2024/01/01 08:52:00;;;;;;;21.65;10.80;;;;;;;9.98;61.08;100215.84;5002481;28;20107;-46
2024/01/01 08:54:26;;;;;;;22.52;10.13;;;;;;;9.91;61.11;100218.03;5002059;28;20128;-43
2024/01/01 08:56:51;;;;;;;21.13;10.68;;;;;;;10.03;61.22;100221.66;5003952;28;20906;-42
2024/01/01 08:59:17;;;;;;;22.15;9.50;;;;;;;9.96;61.12;100215.09;5000152;28;20030;-42
2024/01/01 09:01:45;;;;;;;27.60;11.52;;;;;;;10.10;61.33;100226.50;5002863;28;20044;-42
2024/01/01 09:04:11;;;;;;;17.85;9.40;;;;;;;10.09;61.12;100220.44;5006438;28;20558;-41
2024/01/01 09:06:37;;;;;;;21.35;9.73;;;;;;;10.08;61.08;100226.63;4996773;28;20026;-41
2024/01/01 09:09:02;;;;;;;21.85;9.65;;;;;;;10.16;61.12;100234.84;5000562;28;20040;-43
2024/01/01 09:11:28;;;;;;;19.00;8.02;;;;;;;10.23;60.83;100227.41;5004460;28;20030;-41
2024/01/01 09:13:53;;;;;;;17.55;7.55;;;;;;;10.32;60.93;100225.97;5008618;28;20504;-41
2024/01/01 09:16:19;;;;;;;21.30;9.55;;;;;;;10.40;60.81;100228.13;5001141;28;20114;-41
2024/01/01 09:18:44;;;;;;;21.05;10.52;;;;;;;10.41;60.68;100229.81;5003619;28;20125;-43
2024/01/01 09:21:14;;;;;;;18.55;8.77;;;;;;;10.52;60.72;100224.69;5004291;28;20111;-44
2024/01/01 09:23:40;;;;;;;28.25;9.75;;;;;;;10.42;60.82;100226.25;5000098;28;20034;-40
2024/01/01 09:26:05;;;;;;;20.70;9.25;;;;;;;10.45;60.30;100231.31;5005541;28;20531;-43
2024/01/01 09:28:31;;;;;;;27.80;9.60;;;;;;;10.30;60.53;100228.72;5006554;28;20057;-40
2024/01/01 09:30:57;;;;;;;20.48;9.45;;;;;;;10.37;60.72;100235.25;5009313;28;20046;-40
2024/01/01 09:33:22;;;;;;;19.58;8.02;;;;;;;10.40;60.66;100239.50;5007059;28;20036;-42
2024/01/01 09:35:48;;;;;;;19.77;8.75;;;;;;;10.31;60.58;100237.44;5007601;28;20026;-40
2024/01/01 09:38:13;;;;;;;18.23;8.00;;;;;;;10.33;60.76;100235.53;5007383;28;20497;-43
2024/01/01 09:40:38;;;;;;;17.20;7.78;;;;;;;10.37;60.75;100229.16;5005265;28;20034;-42
2024/01/01 09:43:04;;;;;;;17.17;7.90;;;;;;;10.46;60.72;100225.94;5006582;28;20030;-42
2024/01/01 09:45:30;;;;;;;14.80;7.07;;;;;;;10.52;60.56;100235.22;5006388;28;20050;-43
2024/01/01 09:47:56;;;;;;;16.35;7.43;;;;;;;10.52;60.48;100233.44;5011823;28;20038;-41
2024/01/01 09:50:21;;;;;;;17.63;7.38;;;;;;;10.49;60.31;100228.38;5005106;28;20365;-41
2024/01/01 09:52:56;;;;;;;15.65;6.68;;;;;;;10.55;60.47;100232.38;5006673;28;20134;-41
2024/01/01 09:55:21;;;;;;;21.23;8.13;;;;;;;10.55;60.24;100237.66;5003575;28;20026;-41
2024/01/01 09:57:47;;;;;;;15.10;5.68;;;;;;;10.62;60.41;100238.09;5007763;28;20556;-41
2024/01/01 10:00:19;;;;;;;16.02;7.05;;;;;;;10.57;60.31;100238.41;5004647;28;20113;-41
2024/01/01 10:02:45;;;;;;;16.33;7.55;;;;;;;10.42;60.08;100232.38;5007243;28;20140;-41
2024/01/01 10:05:12;;;;;;;13.18;6.45;;;;;;;10.36;60.20;100233.56;5009703;28;20113;-41
2024/01/01 10:07:38;;;;;;;15.48;7.72;;;;;;;10.29;60.47;100220.91;5003813;28;20029;-41
2024/01/01 10:10:03;;;;;;;16.30;7.15;;;;;;;10.33;60.51;100225.88;5006747;28;20642;-41
2024/01/01 10:12:29;;;;;;;19.30;7.50;;;;;;;10.20;60.64;100227.63;4989623;28;20041;-41
2024/01/01 10:14:57;;;;;;;17.95;6.60;;;;;;;10.28;60.54;100224.50;5006149;28;20025;-41
2024/01/01 10:17:23;;;;;;;15.45;6.72;;;;;;;10.33;60.76;100228.53;4995154;28;20057;-41
2024/01/01 10:20:01;;;;;;;15.57;7.20;;;;;;;10.28;60.03;100227.97;4990509;28;20073;-41
2024/01/01 10:22:31;;;;;;;15.95;6.07;;;;;;;10.33;60.30;100231.16;5003329;28;20038;-42
2024/01/01 10:25:11;;;;;;;18.33;7.13;;;;;;;10.40;60.37;100230.75;5009860;28;20037;-42
2024/01/01 10:27:38;;;;;;;13.35;6.05;;;;;;;10.46;60.49;100227.75;5003749;28;20108;-41
2024/01/01 10:30:03;;;;;;;14.13;6.35;;;;;;;10.59;60.33;100228.63;5001096;28;20096;-41
2024/01/01 10:32:30;;;;;;;14.55;7.25;;;;;;;10.59;59.92;100236.50;5002063;28;20120;-42
2024/01/01 10:34:57;;;;;;;16.08;6.93;;;;;;;10.55;60.25;100232.38;5004784;28;20563;-42
2024/01/01 10:37:23;;;;;;;16.92;5.93;;;;;;;10.24;60.03;100234.34;5005155;28;20503;-44
2024/01/01 10:39:50;;;;;;;17.65;5.75;;;;;;;10.43;59.78;100235.81;5003286;28;20138;-41
2024/01/01 10:42:16;;;;;;;15.32;7.10;;;;;;;10.43;59.98;100235.81;5003479;28;20147;-42
2024/01/01 10:44:41;;;;;;;13.75;6.45;;;;;;;10.43;59.87;100228.78;5000071;28;20520;-41
2024/01/01 10:47:11;;;;;;;20.13;7.30;;;;;;;10.40;60.11;100229.00;5004740;28;20044;-41
2024/01/01 10:49:50;;;;;;;14.30;6.60;;;;;;;10.39;60.00;100226.44;4990017;28;20113;-41
2024/01/01 10:52:37;;;;;;;17.17;7.53;;;;;;;10.35;60.14;100220.50;5000977;28;20053;-42
2024/01/01 10:55:25;;;;;;;14.48;6.35;;;;;;;10.40;60.63;100214.97;5004907;28;20111;-42
2024/01/01 10:58:29;;;;;;;14.07;5.90;;;;;;;10.39;60.05;100219.41;4999841;28;20290;-41
2024/01/01 11:01:13;;;;;;;15.98;5.35;;;;;;;10.67;59.99;100214.97;5002340;28;20036;-41
2024/01/01 11:03:39;;;;;;;16.30;6.55;;;;;;;10.62;60.09;100220.53;5001654;28;20482;-42
2024/01/01 11:06:26;;;;;;;16.73;6.68;;;;;;;10.65;59.69;100227.38;5001278;28;20610;-41
2024/01/01 11:08:55;;;;;;;13.02;6.03;;;;;;;10.75;60.01;100215.28;5002762;28;20377;-42
2024/01/01 11:11:23;;;;;;;13.50;5.82;;;;;;;10.76;59.52;100221.41;5003981;28;20388;-41
2024/01/01 11:13:53;;;;;;;15.02;5.30;;;;;;;10.95;59.48;100218.34;5004355;28;20117;-43